sensor_id;sensor_type;location;lat;lon;timestamp;P1;durP1;ratioP1;P2;durP2;ratioP2
50126;SDS011;36024;47.974;16.398;2023-01-29T00:44:04;8.57;;;6.07;;
50126;SDS011;36024;47.974;16.398;2023-01-29T00:46:51;7.70;;;6.20;;
50126;SDS011;36024;47.974;16.398;2023-01-29T00:49:30;8.23;;;6.30;;
50126;SDS011;36024;47.974;16.398;2023-01-29T00:52:55;7.57;;;6.23;;
50126;SDS011;36024;47.974;16.398;2023-01-29T00:55:51;7.43;;;6.60;;
50126;SDS011;36024;47.974;16.398;2023-01-29T00:59:07;8.20;;;6.30;;
50126;SDS011;36024;47.974;16.398;2023-01-29T01:02:33;8.50;;;6.30;;
50126;SDS011;36024;47.974;16.398;2023-01-29T01:05:31;7.63;;;6.53;;
50126;SDS011;36024;47.974;16.398;2023-01-29T05:09:21;7.47;;;5.07;;
50126;SDS011;36024;47.974;16.398;2023-01-29T05:11:57;6.03;;;5.10;;
50126;SDS011;36024;47.974;16.398;2023-01-29T05:14:27;5.97;;;4.67;;
50126;SDS011;36024;47.974;16.398;2023-01-29T05:17:01;4.70;;;4.20;;
50126;SDS011;36024;47.974;16.398;2023-01-29T05:19:32;5.30;;;4.13;;
50126;SDS011;36024;47.974;16.398;2023-01-29T05:22:03;6.90;;;5.03;;
50126;SDS011;36024;47.974;16.398;2023-01-29T05:24:35;6.30;;;4.97;;
50126;SDS011;36024;47.974;16.398;2023-01-29T05:27:24;5.77;;;4.77;;
50126;SDS011;36024;47.974;16.398;2023-01-29T05:30:15;5.23;;;4.10;;
50126;SDS011;36024;47.974;16.398;2023-01-29T05:32:45;4.87;;;4.23;;
50126;SDS011;36024;47.974;16.398;2023-01-29T05:35:14;4.73;;;4.23;;
50126;SDS011;36024;47.974;16.398;2023-01-29T05:37:44;4.87;;;3.80;;
50126;SDS011;36024;47.974;16.398;2023-01-29T05:40:12;4.87;;;4.37;;
50126;SDS011;36024;47.974;16.398;2023-01-29T05:42:42;4.87;;;4.30;;
50126;SDS011;36024;47.974;16.398;2023-01-29T05:45:12;5.03;;;4.10;;
50126;SDS011;36024;47.974;16.398;2023-01-29T05:47:46;6.17;;;4.97;;
50126;SDS011;36024;47.974;16.398;2023-01-29T05:50:15;6.07;;;4.90;;
50126;SDS011;36024;47.974;16.398;2023-01-29T05:52:47;5.23;;;4.50;;
50126;SDS011;36024;47.974;16.398;2023-01-29T05:55:17;7.10;;;5.03;;
50126;SDS011;36024;47.974;16.398;2023-01-29T05:57:47;6.73;;;4.73;;
50126;SDS011;36024;47.974;16.398;2023-01-29T06:00:17;5.63;;;4.73;;
50126;SDS011;36024;47.974;16.398;2023-01-29T06:02:49;6.07;;;4.60;;
50126;SDS011;36024;47.974;16.398;2023-01-29T06:05:22;6.10;;;4.70;;
50126;SDS011;36024;47.974;16.398;2023-01-29T06:07:51;5.13;;;4.43;;
50126;SDS011;36024;47.974;16.398;2023-01-29T06:10:21;5.60;;;4.33;;
50126;SDS011;36024;47.974;16.398;2023-01-29T06:12:50;5.60;;;5.00;;
50126;SDS011;36024;47.974;16.398;2023-01-29T06:15:19;5.13;;;4.43;;
50126;SDS011;36024;47.974;16.398;2023-01-29T06:17:48;5.53;;;4.37;;
50126;SDS011;36024;47.974;16.398;2023-01-29T06:20:17;5.63;;;4.40;;
50126;SDS011;36024;47.974;16.398;2023-01-29T06:22:49;6.13;;;4.70;;
50126;SDS011;36024;47.974;16.398;2023-01-29T06:25:25;5.90;;;4.80;;
50126;SDS011;36024;47.974;16.398;2023-01-29T06:28:05;6.80;;;4.87;;
50126;SDS011;36024;47.974;16.398;2023-01-29T06:30:52;5.73;;;4.30;;
50126;SDS011;36024;47.974;16.398;2023-01-29T06:33:47;6.37;;;4.70;;
50126;SDS011;36024;47.974;16.398;2023-01-29T06:36:30;6.43;;;5.03;;
50126;SDS011;36024;47.974;16.398;2023-01-29T06:39:03;6.43;;;5.10;;
50126;SDS011;36024;47.974;16.398;2023-01-29T06:47:50;5.73;;;4.20;;
50126;SDS011;36024;47.974;16.398;2023-01-29T06:50:21;4.93;;;3.97;;
50126;SDS011;36024;47.974;16.398;2023-01-29T06:52:52;6.43;;;5.03;;
50126;SDS011;36024;47.974;16.398;2023-01-29T06:55:20;6.47;;;4.80;;
50126;SDS011;36024;47.974;16.398;2023-01-29T06:57:48;6.57;;;4.57;;
50126;SDS011;36024;47.974;16.398;2023-01-29T07:00:16;5.23;;;4.27;;
50126;SDS011;36024;47.974;16.398;2023-01-29T07:02:47;5.43;;;4.60;;
50126;SDS011;36024;47.974;16.398;2023-01-29T07:05:15;9.57;;;6.50;;
50126;SDS011;36024;47.974;16.398;2023-01-29T07:07:43;14.83;;;12.33;;
50126;SDS011;36024;47.974;16.398;2023-01-29T07:10:11;7.73;;;5.03;;
50126;SDS011;36024;47.974;16.398;2023-01-29T07:12:38;6.13;;;4.80;;
50126;SDS011;36024;47.974;16.398;2023-01-29T07:15:06;6.07;;;4.73;;
50126;SDS011;36024;47.974;16.398;2023-01-29T07:17:35;6.60;;;5.37;;
50126;SDS011;36024;47.974;16.398;2023-01-29T07:20:03;7.07;;;5.80;;
50126;SDS011;36024;47.974;16.398;2023-01-29T07:22:31;6.27;;;5.50;;
50126;SDS011;36024;47.974;16.398;2023-01-29T07:24:59;6.80;;;5.00;;
50126;SDS011;36024;47.974;16.398;2023-01-29T07:27:26;10.30;;;6.33;;
50126;SDS011;36024;47.974;16.398;2023-01-29T07:29:53;7.17;;;5.83;;
50126;SDS011;36024;47.974;16.398;2023-01-29T07:32:21;8.10;;;6.10;;
50126;SDS011;36024;47.974;16.398;2023-01-29T07:34:49;6.87;;;5.73;;
50126;SDS011;36024;47.974;16.398;2023-01-29T07:37:16;7.67;;;5.80;;
50126;SDS011;36024;47.974;16.398;2023-01-29T07:44:37;6.43;;;5.63;;
50126;SDS011;36024;47.974;16.398;2023-01-29T07:47:08;6.70;;;4.87;;
50126;SDS011;36024;47.974;16.398;2023-01-29T07:49:43;6.13;;;5.10;;
50126;SDS011;36024;47.974;16.398;2023-01-29T07:52:16;5.47;;;4.53;;
50126;SDS011;36024;47.974;16.398;2023-01-29T07:54:54;6.83;;;5.70;;
50126;SDS011;36024;47.974;16.398;2023-01-29T07:57:41;5.90;;;5.00;;
50126;SDS011;36024;47.974;16.398;2023-01-29T08:00:12;6.23;;;5.07;;
50126;SDS011;36024;47.974;16.398;2023-01-29T08:02:53;5.63;;;4.90;;
50126;SDS011;36024;47.974;16.398;2023-01-29T08:05:37;7.63;;;5.87;;
50126;SDS011;36024;47.974;16.398;2023-01-29T08:08:17;5.67;;;5.17;;
50126;SDS011;36024;47.974;16.398;2023-01-29T08:10:52;5.57;;;4.83;;
50126;SDS011;36024;47.974;16.398;2023-01-29T08:13:24;5.37;;;4.70;;
50126;SDS011;36024;47.974;16.398;2023-01-29T08:16:05;6.63;;;5.40;;
50126;SDS011;36024;47.974;16.398;2023-01-29T08:18:39;6.13;;;5.50;;
50126;SDS011;36024;47.974;16.398;2023-01-29T08:21:14;8.10;;;5.93;;
50126;SDS011;36024;47.974;16.398;2023-01-29T08:23:48;6.47;;;5.40;;
50126;SDS011;36024;47.974;16.398;2023-01-29T08:26:19;5.97;;;5.37;;
50126;SDS011;36024;47.974;16.398;2023-01-29T08:28:54;7.30;;;5.80;;
50126;SDS011;36024;47.974;16.398;2023-01-29T08:31:27;6.70;;;6.07;;
50126;SDS011;36024;47.974;16.398;2023-01-29T08:34:00;6.83;;;6.13;;
50126;SDS011;36024;47.974;16.398;2023-01-29T08:36:34;6.97;;;5.57;;
50126;SDS011;36024;47.974;16.398;2023-01-29T08:39:07;6.20;;;5.57;;
50126;SDS011;36024;47.974;16.398;2023-01-29T08:41:41;6.70;;;5.93;;
50126;SDS011;36024;47.974;16.398;2023-01-29T08:44:12;6.80;;;5.70;;
50126;SDS011;36024;47.974;16.398;2023-01-29T08:46:43;6.53;;;5.63;;
50126;SDS011;36024;47.974;16.398;2023-01-29T08:54:06;8.83;;;5.93;;
50126;SDS011;36024;47.974;16.398;2023-01-29T08:56:33;6.83;;;5.90;;
50126;SDS011;36024;47.974;16.398;2023-01-29T08:59:00;6.97;;;5.40;;
50126;SDS011;36024;47.974;16.398;2023-01-29T09:01:29;6.43;;;5.37;;
50126;SDS011;36024;47.974;16.398;2023-01-29T09:04:01;8.53;;;5.87;;
50126;SDS011;36024;47.974;16.398;2023-01-29T09:06:28;7.17;;;6.00;;
50126;SDS011;36024;47.974;16.398;2023-01-29T09:08:59;8.03;;;5.93;;
50126;SDS011;36024;47.974;16.398;2023-01-29T09:11:30;9.73;;;7.03;;
50126;SDS011;36024;47.974;16.398;2023-01-29T09:14:00;6.40;;;5.50;;
50126;SDS011;36024;47.974;16.398;2023-01-29T09:16:27;12.47;;;9.40;;
50126;SDS011;36024;47.974;16.398;2023-01-29T09:18:59;6.67;;;5.50;;
50126;SDS011;36024;47.974;16.398;2023-01-29T09:21:27;11.30;;;6.53;;
50126;SDS011;36024;47.974;16.398;2023-01-29T09:23:55;13.60;;;9.50;;
50126;SDS011;36024;47.974;16.398;2023-01-29T09:26:23;11.07;;;8.90;;
50126;SDS011;36024;47.974;16.398;2023-01-29T09:28:52;7.47;;;5.83;;
50126;SDS011;36024;47.974;16.398;2023-01-29T09:31:20;15.37;;;10.33;;
50126;SDS011;36024;47.974;16.398;2023-01-29T09:33:51;10.70;;;8.20;;
50126;SDS011;36024;47.974;16.398;2023-01-29T09:36:22;8.87;;;6.80;;
50126;SDS011;36024;47.974;16.398;2023-01-29T09:38:52;9.20;;;6.80;;
50126;SDS011;36024;47.974;16.398;2023-01-29T09:44:18;10.23;;;8.30;;
50126;SDS011;36024;47.974;16.398;2023-01-29T09:47:02;10.80;;;6.90;;
50126;SDS011;36024;47.974;16.398;2023-01-29T09:49:33;17.90;;;11.77;;
50126;SDS011;36024;47.974;16.398;2023-01-29T09:52:22;14.00;;;9.40;;
50126;SDS011;36024;47.974;16.398;2023-01-29T09:57:33;20.23;;;12.97;;
50126;SDS011;36024;47.974;16.398;2023-01-29T10:00:23;14.87;;;11.03;;
50126;SDS011;36024;47.974;16.398;2023-01-29T10:05:30;8.13;;;6.93;;
50126;SDS011;36024;47.974;16.398;2023-01-29T10:08:29;7.77;;;6.10;;
50126;SDS011;36024;47.974;16.398;2023-01-29T10:13:53;7.33;;;6.10;;
50126;SDS011;36024;47.974;16.398;2023-01-29T10:25:18;8.57;;;6.57;;
50126;SDS011;36024;47.974;16.398;2023-01-29T10:27:52;7.73;;;6.30;;
50126;SDS011;36024;47.974;16.398;2023-01-29T10:30:36;8.00;;;6.40;;
50126;SDS011;36024;47.974;16.398;2023-01-29T10:33:11;7.40;;;6.23;;
50126;SDS011;36024;47.974;16.398;2023-01-29T10:35:46;8.63;;;6.57;;
50126;SDS011;36024;47.974;16.398;2023-01-29T10:44:04;7.07;;;6.23;;
50126;SDS011;36024;47.974;16.398;2023-01-29T10:50:47;8.87;;;6.70;;
50126;SDS011;36024;47.974;16.398;2023-01-29T10:56:54;7.17;;;6.10;;
50126;SDS011;36024;47.974;16.398;2023-01-29T11:05:54;9.37;;;7.33;;
50126;SDS011;36024;47.974;16.398;2023-01-29T11:08:22;8.40;;;6.90;;
50126;SDS011;36024;47.974;16.398;2023-01-29T11:11:10;8.57;;;6.90;;
50126;SDS011;36024;47.974;16.398;2023-01-29T11:14:05;8.03;;;7.20;;
50126;SDS011;36024;47.974;16.398;2023-01-29T11:16:58;7.37;;;6.57;;
50126;SDS011;36024;47.974;16.398;2023-01-29T11:19:36;9.80;;;7.73;;
50126;SDS011;36024;47.974;16.398;2023-01-29T11:22:16;15.23;;;11.73;;
50126;SDS011;36024;47.974;16.398;2023-01-29T11:25:06;10.63;;;8.03;;
50126;SDS011;36024;47.974;16.398;2023-01-29T11:27:56;20.83;;;16.93;;
50126;SDS011;36024;47.974;16.398;2023-01-29T11:30:34;16.13;;;11.60;;
50126;SDS011;36024;47.974;16.398;2023-01-29T11:37:15;11.90;;;9.40;;
50126;SDS011;36024;47.974;16.398;2023-01-29T12:08:20;9.90;;;7.93;;
50126;SDS011;36024;47.974;16.398;2023-01-29T12:11:31;11.03;;;7.30;;
50126;SDS011;36024;47.974;16.398;2023-01-29T12:14:03;10.53;;;7.90;;
50126;SDS011;36024;47.974;16.398;2023-01-29T12:17:10;9.77;;;8.07;;
50126;SDS011;36024;47.974;16.398;2023-01-29T12:19:44;11.03;;;8.27;;
50126;SDS011;36024;47.974;16.398;2023-01-29T12:28:49;9.90;;;7.93;;
50126;SDS011;36024;47.974;16.398;2023-01-29T12:31:28;10.33;;;8.20;;
50126;SDS011;36024;47.974;16.398;2023-01-29T19:45:48;22.63;;;16.37;;
50126;SDS011;36024;47.974;16.398;2023-01-29T19:48:38;25.25;;;21.75;;
50126;SDS011;36024;47.974;16.398;2023-01-29T20:02:44;27.77;;;19.07;;
50126;SDS011;36024;47.974;16.398;2023-01-29T20:08:30;30.60;;;21.63;;
50126;SDS011;36024;47.974;16.398;2023-01-29T20:11:06;32.93;;;22.07;;
50126;SDS011;36024;47.974;16.398;2023-01-29T20:13:50;29.60;;;20.93;;
50126;SDS011;36024;47.974;16.398;2023-01-29T20:16:38;33.80;;;22.00;;
50126;SDS011;36024;47.974;16.398;2023-01-29T20:19:21;42.43;;;28.23;;
50126;SDS011;36024;47.974;16.398;2023-01-29T20:21:53;38.37;;;25.07;;
50126;SDS011;36024;47.974;16.398;2023-01-29T20:24:39;49.87;;;31.50;;
50126;SDS011;36024;47.974;16.398;2023-01-29T20:27:17;38.87;;;26.63;;
50126;SDS011;36024;47.974;16.398;2023-01-29T20:29:53;37.80;;;25.67;;
50126;SDS011;36024;47.974;16.398;2023-01-29T20:32:26;36.67;;;24.43;;
50126;SDS011;36024;47.974;16.398;2023-01-29T20:35:08;40.53;;;26.03;;
50126;SDS011;36024;47.974;16.398;2023-01-29T20:37:52;36.97;;;24.90;;
50126;SDS011;36024;47.974;16.398;2023-01-29T20:40:32;75.97;;;45.37;;
50126;SDS011;36024;47.974;16.398;2023-01-29T20:43:04;53.33;;;35.00;;
50126;SDS011;36024;47.974;16.398;2023-01-29T20:45:47;39.63;;;25.37;;
50126;SDS011;36024;47.974;16.398;2023-01-29T20:48:18;36.57;;;24.60;;
50126;SDS011;36024;47.974;16.398;2023-01-29T20:50:51;40.70;;;27.47;;
50126;SDS011;36024;47.974;16.398;2023-01-29T20:53:26;57.43;;;34.00;;
50126;SDS011;36024;47.974;16.398;2023-01-29T20:56:01;70.83;;;44.17;;
50126;SDS011;36024;47.974;16.398;2023-01-29T20:58:33;69.43;;;41.23;;
50126;SDS011;36024;47.974;16.398;2023-01-29T21:01:06;81.27;;;46.77;;
50126;SDS011;36024;47.974;16.398;2023-01-29T21:03:40;44.73;;;29.87;;
50126;SDS011;36024;47.974;16.398;2023-01-29T21:06:14;70.10;;;42.50;;
50126;SDS011;36024;47.974;16.398;2023-01-29T21:08:45;83.63;;;47.23;;
50126;SDS011;36024;47.974;16.398;2023-01-29T21:11:17;74.03;;;45.63;;
50126;SDS011;36024;47.974;16.398;2023-01-29T21:13:48;66.27;;;39.80;;
50126;SDS011;36024;47.974;16.398;2023-01-29T21:16:22;53.80;;;33.17;;
50126;SDS011;36024;47.974;16.398;2023-01-29T21:18:56;42.57;;;28.07;;
50126;SDS011;36024;47.974;16.398;2023-01-29T21:21:26;36.23;;;25.00;;
50126;SDS011;36024;47.974;16.398;2023-01-29T21:23:56;35.17;;;24.50;;
50126;SDS011;36024;47.974;16.398;2023-01-29T21:26:29;38.37;;;25.30;;
50126;SDS011;36024;47.974;16.398;2023-01-29T21:29:00;38.17;;;25.00;;
50126;SDS011;36024;47.974;16.398;2023-01-29T21:31:31;36.17;;;24.53;;
50126;SDS011;36024;47.974;16.398;2023-01-29T21:34:05;35.57;;;23.97;;
50126;SDS011;36024;47.974;16.398;2023-01-29T21:36:38;36.80;;;23.57;;
50126;SDS011;36024;47.974;16.398;2023-01-29T21:39:08;32.97;;;22.87;;
50126;SDS011;36024;47.974;16.398;2023-01-29T21:41:48;37.60;;;23.43;;
50126;SDS011;36024;47.974;16.398;2023-01-29T21:44:36;35.57;;;22.90;;
50126;SDS011;36024;47.974;16.398;2023-01-29T21:47:05;34.07;;;22.53;;
50126;SDS011;36024;47.974;16.398;2023-01-29T21:49:41;33.33;;;22.50;;
50126;SDS011;36024;47.974;16.398;2023-01-29T21:52:11;33.87;;;21.90;;
50126;SDS011;36024;47.974;16.398;2023-01-29T21:54:41;31.97;;;21.93;;
50126;SDS011;36024;47.974;16.398;2023-01-29T21:57:15;30.60;;;20.37;;
50126;SDS011;36024;47.974;16.398;2023-01-29T21:59:44;30.43;;;20.97;;
50126;SDS011;36024;47.974;16.398;2023-01-29T22:02:20;28.63;;;19.97;;
50126;SDS011;36024;47.974;16.398;2023-01-29T22:04:50;30.37;;;20.70;;
50126;SDS011;36024;47.974;16.398;2023-01-29T22:07:22;28.63;;;19.27;;
50126;SDS011;36024;47.974;16.398;2023-01-29T22:09:52;29.07;;;20.13;;
50126;SDS011;36024;47.974;16.398;2023-01-29T22:12:22;29.93;;;19.30;;
50126;SDS011;36024;47.974;16.398;2023-01-29T22:14:52;29.10;;;19.47;;
50126;SDS011;36024;47.974;16.398;2023-01-29T22:17:21;30.27;;;19.47;;
50126;SDS011;36024;47.974;16.398;2023-01-29T22:19:50;30.67;;;19.40;;
50126;SDS011;36024;47.974;16.398;2023-01-29T22:22:20;29.83;;;19.83;;
50126;SDS011;36024;47.974;16.398;2023-01-29T22:24:52;32.60;;;20.10;;
50126;SDS011;36024;47.974;16.398;2023-01-29T22:27:20;29.93;;;20.23;;
50126;SDS011;36024;47.974;16.398;2023-01-29T22:29:51;29.50;;;19.37;;
50126;SDS011;36024;47.974;16.398;2023-01-29T22:32:20;30.40;;;19.80;;
50126;SDS011;36024;47.974;16.398;2023-01-29T22:34:49;34.30;;;22.33;;
50126;SDS011;36024;47.974;16.398;2023-01-29T22:37:20;38.63;;;23.10;;
50126;SDS011;36024;47.974;16.398;2023-01-29T22:39:48;35.07;;;22.93;;
50126;SDS011;36024;47.974;16.398;2023-01-29T22:42:17;30.93;;;20.43;;
50126;SDS011;36024;47.974;16.398;2023-01-29T22:44:47;31.20;;;20.90;;
50126;SDS011;36024;47.974;16.398;2023-01-29T22:47:14;32.30;;;20.27;;
50126;SDS011;36024;47.974;16.398;2023-01-29T22:49:43;31.97;;;20.53;;
50126;SDS011;36024;47.974;16.398;2023-01-29T22:52:11;29.97;;;20.17;;
50126;SDS011;36024;47.974;16.398;2023-01-29T22:54:39;32.17;;;21.10;;
50126;SDS011;36024;47.974;16.398;2023-01-29T22:57:11;31.10;;;20.80;;
50126;SDS011;36024;47.974;16.398;2023-01-29T22:59:39;32.00;;;19.70;;
50126;SDS011;36024;47.974;16.398;2023-01-29T23:02:07;32.00;;;20.30;;
50126;SDS011;36024;47.974;16.398;2023-01-29T23:04:34;32.03;;;20.17;;
50126;SDS011;36024;47.974;16.398;2023-01-29T23:07:02;28.77;;;19.67;;
50126;SDS011;36024;47.974;16.398;2023-01-29T23:09:29;31.13;;;21.57;;
50126;SDS011;36024;47.974;16.398;2023-01-29T23:11:56;29.90;;;20.53;;
50126;SDS011;36024;47.974;16.398;2023-01-29T23:14:23;38.57;;;24.13;;
50126;SDS011;36024;47.974;16.398;2023-01-29T23:16:49;38.10;;;24.90;;
50126;SDS011;36024;47.974;16.398;2023-01-29T23:19:16;34.83;;;23.20;;
50126;SDS011;36024;47.974;16.398;2023-01-29T23:21:45;32.90;;;20.40;;
50126;SDS011;36024;47.974;16.398;2023-01-29T23:24:14;33.40;;;20.83;;
50126;SDS011;36024;47.974;16.398;2023-01-29T23:26:41;30.83;;;20.60;;
50126;SDS011;36024;47.974;16.398;2023-01-29T23:29:27;32.67;;;20.90;;
50126;SDS011;36024;47.974;16.398;2023-01-29T23:31:53;28.60;;;19.07;;
50126;SDS011;36024;47.974;16.398;2023-01-29T23:34:20;31.53;;;19.97;;
50126;SDS011;36024;47.974;16.398;2023-01-29T23:36:47;35.27;;;21.77;;
50126;SDS011;36024;47.974;16.398;2023-01-29T23:39:15;32.00;;;21.70;;
50126;SDS011;36024;47.974;16.398;2023-01-29T23:41:42;32.23;;;21.93;;
50126;SDS011;36024;47.974;16.398;2023-01-29T23:44:09;33.90;;;21.07;;
50126;SDS011;36024;47.974;16.398;2023-01-29T23:46:36;29.00;;;18.83;;
50126;SDS011;36024;47.974;16.398;2023-01-29T23:49:03;26.97;;;19.00;;
50126;SDS011;36024;47.974;16.398;2023-01-29T23:51:31;32.10;;;19.23;;
50126;SDS011;36024;47.974;16.398;2023-01-29T23:53:58;33.63;;;21.03;;
50126;SDS011;36024;47.974;16.398;2023-01-29T23:56:25;37.83;;;23.93;;
50126;SDS011;36024;47.974;16.398;2023-01-29T23:58:55;35.67;;;22.73;;
